Airfield :
LOGIN :

Register | Disclaimer

   EN    FR    IT 

 










Legend :    VFR   Marginal VFR   IFR   Intensive IFR   Very Intensive IFR
Visi :
Ceiling :
>= 8 km
>= 3000ft
5 to 8 km
1000 to 3000 ft
1500m to 5 km
500 to 1000 ft
800 to 1500m
200 to 500 ft
< 800m
< 200 ft
Symbols :   Thunderstorms  Fog  Heavy snow  Heavy precipitations  Wind > 20 kt
SIGMETs :     Misc.  Thunderstorms  Icing  Turbulence  Mountain Waves  Volcanic Ashes






- Airport Elevation : 266 ft
- IATA code : NCL


EGNT - Newcastle

CURRENT METAR :
  • 282220Z 23007KT 210V270 9999 FEW040 10/08 Q0999

EXPIRED METARs :
  • 282150Z 23011KT 9999 FEW020 11/08 Q0999
  • 282050Z 22008KT 180V270 9999 FEW020 BKN040 10/09 Q1000
  • 282020Z 20009KT 150V240 9999 SCT020 09/08 Q1001
  • 281950Z 18007KT 140V230 9999 SCT017 09/08 Q1001
  • 281920Z 19006KT 150V230 9999 SCT018 10/08 Q1001
  • 281850Z 22005KT 9999 SCT018 09/08 Q1002
  • 281820Z 22007KT 180V250 9999 SCT018 09/07 Q1003 RERA
  • 281750Z 20004KT 130V270 9999 FEW020 10/07 Q1004
  • 281720Z 21009KT 170V240 9999 FEW020 10/07 Q1003

TAF TAF EGNT
Valid from the 28 at 18:00 until the 29 at 18:00 UTC


281656Z 2818/2918 22012KT 9999 SCT035
TEMPO 2818/2822 BKN010
PROB30
TEMPO 2818/2822 BKN008
TEMPO 2822/2902 6000 RA BKN010
PROB30
TEMPO 2822/2906 24015G25KT
PROB30
TEMPO 2822/2902 3000 +RA BKN008
ATIS : +44 191 214 3400



MET'MAP, your aeronautical weather chart ! - Copyright ORBIFLY December 2007 - Disclaimer

ORBIFLY MET'MAP TEAM :

Programming & Development : Alexandra Zaïnal
Original concept : Baudouin d'Aumeries
Technical & hardware support : Manuel Goepfert
Assistance : Marc-Olivier Méhu




SOURCES & CREDITS :

   NOAA